• Join FlightAware (Why Join?)
  • Login
  • US Flag 
09:05AM EDT


 

Airport Tracker/Info


-or-


 

Live Flight TrackerFlight Track Log ✈ OPT330 ✈ 26-Apr-2014 ✈ KSDL - KSNA

Flight Track Log - Related Links

Times and Time Zones

All times are in EDT time to prevent confusion due to time zone crossing. See the OPT330 flight status page for this flight to view local times or setup timezone preferences in your user account.

Time Position Orientation Groundspeed Altitude Reporting Facility
EDT Latitude Longitude Course Direction KTS MPH feet Rate Location/Type
02:52PM 33.6091 -112.2531 253° West 234 269 17,900  Level FlightAware ADS-B (KSDL)
02:53PM 33.5868 -112.3353 253° West 291 335 20,000 1,920 Climbing FlightAware ADS-B (KSDL)
02:53PM 33.5840 -112.3460 253° West 297 342 20,300 1,020 Climbing FlightAware ADS-B (KSDL)
02:53PM 33.5804 -112.3601 252° West 297 342 20,300 720 Level FlightAware ADS-B (KSDL)
02:53PM 33.5692 -112.4009 254° West 303 349 20,700 1,200 Climbing FlightAware ADS-B (KDMA)
02:54PM 33.5558 -112.4504 252° West 308 354 21,500 1,560 Climbing FlightAware ADS-B (KDMA)
02:54PM 33.5422 -112.5005 252° West 310 357 22,300 1,980 Climbing FlightAware ADS-B (KDMA)
02:55PM 33.5284 -112.5508 254° West 296 341 23,600 2,460 Climbing FlightAware ADS-B (KDMA)
02:55PM 33.5291 -112.5485 252° West 299 344 23,800 1,200 Climbing FlightAware ADS-B (KSDL)
02:56PM 33.5108 -112.6155 252° West 317 365 24,400 1,080 Climbing FlightAware ADS-B (KDMA)
02:56PM 33.4970 -112.6661 252° West 330 380 25,000 540 Climbing FlightAware ADS-B (KDMA)
02:57PM 33.4799 -112.7284 252° West 320 368 25,000  Level FlightAware ADS-B (KDMA)
02:57PM 33.4661 -112.7786 252° West 317 365 25,000  Level FlightAware ADS-B (KDMA)
02:58PM 33.4567 -112.8321 270° West 315 362 25,000  Level FlightAware ADS-B (KDMA)
02:58PM 33.4569 -112.8368 258° West 315 362 25,000  Level FlightAware ADS-B (KDMA)
02:58PM 33.4583 -112.8491 280° West 316 364 25,000  Level FlightAware ADS-B (KDMA)
02:58PM 33.4687 -112.8982 283° West 315 362 25,000 240 Level FlightAware ADS-B (KDMA)
02:59PM 33.4749 -112.9324 283° West 315 362 25,200 1,500 Climbing FlightAware ADS-B (KDMA)
02:59PM 33.4816 -112.9690 282° West 316 364 26,100 1,860 Climbing FlightAware ADS-B (KDMA)
02:59PM 33.4865 -112.9955 283° West 324 373 26,500 2,220 Climbing FlightAware ADS-B (KDMA)
03:00PM 33.5050 -113.0929 283° West 314 361 28,400 2,220 Climbing FlightAware ADS-B (KDMA)
03:01PM 33.5160 -113.1505 283° West 310 357 29,800 2,400 Climbing FlightAware ADS-B (KDMA)
03:01PM 33.5288 -113.2173 283° West 304 350 31,400 1,800 Climbing FlightAware ADS-B (KDMA)
03:02PM 33.5392 -113.2724 283° West 320 368 32,000 480 Climbing FlightAware ADS-B (KDMA)
03:03PM 33.5523 -113.3415 281° West 324 373 32,000  Level FlightAware ADS-B (KDMA)
03:04PM 33.5788 -113.4822 281° West 322 371 32,000  Level FlightAware ADS-B (KDMA)
03:05PM 33.5953 -113.5681 281° West 319 367 32,000  Level Albuquerque Center
03:06PM 33.6147 -113.6714 283° West 312 359 32,000  Level Albuquerque Center
03:07PM 33.6325 -113.7689 282° West 307 353 32,000  Level Albuquerque Center
03:13PM 33.7114 -114.4010 276° West 310 357 32,000  Level FlightAware ADS-B (KVGT)
03:14PM 33.7165 -114.4592 276° West 311 358 32,000  Level FlightAware ADS-B (KVGT)
03:14PM 33.7214 -114.5170 276° West 309 356 32,000  Level FlightAware ADS-B (KVGT)
03:16PM 33.7379 -114.7104 276° West 310 357 32,000  Level FlightAware ADS-B (KVGT)
03:19PM 33.7621 -115.0034 274° West 314 361 32,000  Level FlightAware ADS-B (KVGT)
03:20PM 33.7714 -115.1183 274° West 313 360 32,000  Level FlightAware ADS-B (KVGT)
03:22PM 33.7845 -115.2811 274° West 313 360 32,000  Level FlightAware ADS-B (KVGT)
03:24PM 33.8034 -115.5227 274° West 308 354 32,000  Level FlightAware ADS-B (KVGT)
03:25PM 33.8074 -115.5750 274° West 306 352 32,000  Level FlightAware ADS-B (KVGT)
03:26PM 33.8172 -115.7039 274° West 307 353 32,000  Level FlightAware ADS-B (KVGT)
03:27PM 33.8262 -115.8235 274° West 308 354 32,000  Level FlightAware ADS-B (KVGT)
03:28PM 33.8307 -115.8835 275° West 309 356 32,000 -300 Level FlightAware ADS-B
03:28PM 33.8347 -115.9364 275° West 311 358 31,700 -1,140 Descending FlightAware ADS-B (KBNG)
03:29PM 33.8391 -115.9955 273° West 311 358 30,900 -1,740 Descending FlightAware ADS-B (KBNG)
03:29PM 33.8432 -116.0551 275° West 298 343 29,900 -1,800 Descending FlightAware ADS-B (KBNG)
03:30PM 33.8467 -116.1053 275° West 282 325 28,900 -1,860 Descending FlightAware ADS-B (KBNG)
03:30PM 33.8500 -116.1514 275° West 271 312 28,000 -1,920 Descending FlightAware ADS-B (KBNG)
03:31PM 33.8532 -116.1956 275° West 261 300 27,000 -1,860 Descending FlightAware ADS-B
03:31PM 33.8561 -116.2359 275° West 248 285 26,100 -1,740 Descending FlightAware ADS-B (KBNG)
03:32PM 33.8592 -116.2780 275° West 247 284 25,200 -1,680 Descending FlightAware ADS-B
03:33PM 33.8647 -116.3522 275° West 252 290 23,900 -1,560 Descending FlightAware ADS-B (KBNG)
03:33PM 33.8685 -116.4060 275° West 255 293 22,900 -1,680 Descending FlightAware ADS-B
03:34PM 33.8706 -116.4371 273° West 258 297 21,900 -1,740 Descending FlightAware ADS-B (KBNG)
03:34PM 33.8719 -116.4606 273° West 259 298 21,800 -1,800 Descending FlightAware ADS-B
03:35PM 33.8741 -116.5132 273° West 258 297 20,700 -1,740 Descending FlightAware ADS-B (KBNG)
03:35PM 33.8764 -116.5626 273° West 255 293 19,800 -1,620 Descending FlightAware ADS-B
03:36PM 33.8783 -116.6027 273° West 252 290 19,000 -1,740 Descending FlightAware ADS-B
03:36PM 33.8805 -116.6496 273° West 251 289 17,900 -1,860 Descending FlightAware ADS-B
03:37PM 33.8828 -116.6988 273° West 253 291 17,000 -1,680 Descending FlightAware ADS-B (KBNG)
03:37PM 33.8846 -116.7386 273° West 256 295 16,200 -1,680 Descending FlightAware ADS-B (KBNG)
03:38PM 33.8868 -116.7863 273° West 257 296 15,300 -1,800 Descending FlightAware ADS-B (KBNG)
03:38PM 33.8887 -116.8293 273° West 254 292 14,400 -1,560 Descending FlightAware ADS-B
03:39PM 33.8870 -116.8556 255° West 263 303 14,000 -600 Descending FlightAware ADS-B (KBNG)
03:39PM 33.8770 -116.8872 250° West 263 303 14,000  Level FlightAware ADS-B
03:39PM 33.8752 -116.8993 261° West 255 293 14,000  Level FlightAware ADS-B (KBNG)
03:40PM 33.8692 -116.9403 259° West 259 298 14,000 -540 Level FlightAware ADS-B
03:40PM 33.8622 -116.9839 259° West 251 289 13,500 -1,320 Descending FlightAware ADS-B
03:41PM 33.8555 -117.0252 259° West 234 269 12,700 -1,500 Descending FlightAware ADS-B
03:41PM 33.8493 -117.0647 259° West 224 258 12,000 -1,500 Descending FlightAware ADS-B
03:42PM 33.8437 -117.1001 259° West 221 254 11,200 -1,680 Descending FlightAware ADS-B
03:42PM 33.8357 -117.1502 259° West 231 266 10,100 -1,020 Descending FlightAware ADS-B (KBNG)
03:43PM 33.8285 -117.1952 259° West 245 282 10,000 -120 Descending FlightAware ADS-B (KBNG)
03:44PM 33.8210 -117.2424 259° West 250 288 10,000  Level FlightAware ADS-B
03:44PM 33.8139 -117.2861 259° West 243 280 10,000  Level FlightAware ADS-B
03:45PM 33.8127 -117.2934 260° West 242 278 10,000  Level FlightAware ADS-B (OPMT / MUX)
03:45PM 33.8046 -117.3437 259° West 236 272 10,000 -480 Level FlightAware ADS-B
03:46PM 33.7968 -117.3921 259° West 240 276 9,600 -600 Descending FlightAware ADS-B
03:46PM 33.7957 -117.3986 260° West 239 275 9,600 -1,140 Level FlightAware ADS-B (OPMT / MUX)
03:46PM 33.7915 -117.4243 259° West 234 269 9,200 -1,200 Descending FlightAware ADS-B (OPMT / MUX)
03:46PM 33.7918 -117.4229 259° West 234 269 9,200 -1,140 Level FlightAware ADS-B
03:46PM 33.7882 -117.4444 260° West 231 266 8,900 -1,080 Descending FlightAware ADS-B (OPMT / MUX)
03:46PM 33.7882 -117.4444 259° West 230 265 8,900 -1,200 Level FlightAware ADS-B
03:46PM 33.7851 -117.4631 260° West 234 269 8,600 -1,140 Descending FlightAware ADS-B (OPMT / MUX)
03:47PM 33.7842 -117.4693 260° West 239 275 8,500 -1,320 Descending FlightAware ADS-B
03:47PM 33.7823 -117.4816 260° West 242 278 8,300 -1,380 Descending FlightAware ADS-B (OPMT / MUX)
03:47PM 33.7798 -117.5026 264° West 244 281 8,000 -900 Descending FlightAware ADS-B
03:47PM 33.7790 -117.5106 264° West 238 274 8,000 -900 Level FlightAware ADS-B (OPMT / MUX)
03:47PM 33.7771 -117.5295 264° West 219 252 7,700 -1,380 Descending FlightAware ADS-B (OPMT / MUX)
03:47PM 33.7772 -117.5291 263° West 217 250 7,600 -1,740 Descending FlightAware ADS-B
03:48PM 33.7754 -117.5469 264° West 204 235 7,300 -1,380 Descending FlightAware ADS-B (OPMT / MUX)
03:48PM 33.7740 -117.5631 269° West 204 235 7,000 -1,200 Descending FlightAware ADS-B (OPMT / MUX)
03:48PM 33.7745 -117.5696 276° West 203 234 6,900 -1,440 Descending FlightAware ADS-B (OPMT / MUX)
03:48PM 33.7756 -117.5774 280° West 202 232 6,700 -1,320 Descending FlightAware ADS-B
03:48PM 33.7766 -117.5841 281° West 200 230 6,600 -360 Descending FlightAware ADS-B (OPMT / MUX)
03:48PM 33.7778 -117.5921 280° West 195 224 6,600  Level FlightAware ADS-B
03:48PM 33.7800 -117.6060 281° West 192 221 6,600  Level FlightAware ADS-B (OPMT / MUX)
03:49PM 33.7817 -117.6168 280° West 188 216 6,600 -300 Level FlightAware ADS-B
03:49PM 33.7833 -117.6274 281° West 183 211 6,500 -360 Descending FlightAware ADS-B (OPMT / MUX)
03:49PM 33.7838 -117.6306 281° West 183 211 6,500 -1,200 Level FlightAware ADS-B
03:49PM 33.7858 -117.6430 281° West 184 212 6,200 -1,860 Descending FlightAware ADS-B (OPMT / MUX)
03:49PM 33.7881 -117.6577 281° West 184 212 5,800 -1,440 Descending FlightAware ADS-B (OPMT / MUX)
03:49PM 33.7884 -117.6593 281° West 184 212 5,800 -1,200 Level FlightAware ADS-B
03:50PM 33.7906 -117.6728 282° West 182 209 5,500 -1,380 Descending FlightAware ADS-B (OPMT / MUX)
03:50PM 33.7913 -117.6771 281° West 183 211 5,400 -1,620 Descending FlightAware ADS-B
03:50PM 33.7929 -117.6866 282° West 180 207 5,100 -1,380 Descending FlightAware ADS-B (OPMT / MUX)
03:50PM 33.7948 -117.6972 281° West 180 207 4,900 -1,620 Descending FlightAware ADS-B
03:50PM 33.7953 -117.7030 275° West 179 206 4,700 -1,500 Descending FlightAware ADS-B (OPMT / MUX)
03:50PM 33.7954 -117.7056 271° West 179 206 4,700 -1,200 Level FlightAware ADS-B
03:50PM 33.7954 -117.7172 270° West 172 198 4,400 -2,040 Descending FlightAware ADS-B (OPMT / MUX)
03:50PM 33.7955 -117.7219 270° West 167 192 4,200 -1,200 Descending FlightAware ADS-B
03:51PM 33.7955 -117.7315 270° West 163 188 4,100 -840 Descending FlightAware ADS-B (OPMT / MUX)
03:51PM 33.7954 -117.7332 270° West 159 183 4,000 -1,620 Descending FlightAware ADS-B
03:51PM 33.7954 -117.7441 270° West 152 175 3,700 -1,500 Descending FlightAware ADS-B (OPMT / MUX)
03:51PM 33.7948 -117.7523 262° West 147 169 3,500 -1,440 Descending FlightAware ADS-B (OPMT / MUX)
03:51PM 33.7933 -117.7642 262° West 142 163 3,100 -1,140 Descending FlightAware ADS-B (OPMT / MUX)
03:51PM 33.7922 -117.7731 262° West 130 150 3,000 -600 Descending FlightAware ADS-B
03:52PM 33.7915 -117.7790 262° West 129 148 2,900 -1,380 Descending FlightAware ADS-B (OPMT / MUX)
03:52PM 33.7904 -117.7858 256° West 131 151 2,600 -1,620 Descending FlightAware ADS-B (OPMT / MUX)
03:52PM 33.7892 -117.7898 250° West 134 154 2,500 -1,620 Descending FlightAware ADS-B (OPMT / MUX)
03:52PM 33.7869 -117.7963 244° Southwest 133 153 2,200 -1,620 Descending FlightAware ADS-B (OPMT / MUX)
03:52PM 33.7855 -117.7986 232° Southwest 130 150 2,100 -1,020 Descending FlightAware ADS-B (OPMT / MUX)
03:52PM 33.7848 -117.7995 225° Southwest 129 148 2,100  Level FlightAware ADS-B
03:52PM 33.7827 -117.8013 215° Southwest 124 143 2,100 -720 Level FlightAware ADS-B (OPMT / MUX)
03:52PM 33.7800 -117.8031 208° Southwest 118 136 2,000 -240 Descending FlightAware ADS-B (OPMT / MUX)
03:53PM 33.7728 -117.8073 207° Southwest 105 121 2,000  Level FlightAware ADS-B (KSNA)
03:53PM 33.7712 -117.8083 208° Southwest 107 123 2,000 -300 Level FlightAware ADS-B (OPMT / MUX)
03:53PM 33.7621 -117.8141 209° Southwest 114 131 1,900 -420 Descending FlightAware ADS-B (OPMT / MUX)
03:53PM 33.7573 -117.8173 210° Southwest 113 130 1,800 -420 Descending FlightAware ADS-B
03:53PM 33.7545 -117.8190 208° Southwest 115 132 1,800 -720 Level FlightAware ADS-B (OPMT / MUX)
03:53PM 33.7475 -117.8234 208° Southwest 119 137 1,600 -720 Descending FlightAware ADS-B (OPMT / MUX)
03:53PM 33.7466 -117.8240 206° Southwest 119 137 1,600 -840 Level FlightAware ADS-B
03:54PM 33.7404 -117.8278 208° Southwest 114 131 1,400 -900 Descending FlightAware ADS-B (OPMT / MUX)
03:54PM 33.7331 -117.8322 206° Southwest 107 123 1,200 -840 Descending FlightAware ADS-B (OPMT / MUX)
03:54PM 33.7317 -117.8330 207° Southwest 105 121 1,100 -420 Descending FlightAware ADS-B (KSNA)
03:54PM 33.7269 -117.8361 210° Southwest 102 117 1,100 -540 Level FlightAware ADS-B (OPMT / MUX)
03:54PM 33.7203 -117.8406 208° Southwest 106 122 900 -660 Descending FlightAware ADS-B (OPMT / MUX)
03:54PM 33.7194 -117.8411 208° Southwest 105 121 900 -480 Level FlightAware ADS-B (KSNA)
03:55PM 33.7142 -117.8445 209° Southwest 98 113 800 -480 Descending FlightAware ADS-B (OPMT / MUX)
03:55PM 33.7080 -117.8483 206° Southwest 97 112 700 -480 Descending FlightAware ADS-B (OPMT / MUX)
03:55PM 33.7058 -117.8497 206° Southwest 96 110 600 -840 Descending FlightAware ADS-B (KSNA)
03:55PM 33.7020 -117.8519 209° Southwest 96 110 500 -600 Descending FlightAware ADS-B (OPMT / MUX)
03:55PM 33.6959 -117.8560 209° Southwest 102 117 400 -420 Descending FlightAware ADS-B (OPMT / MUX)
03:56PM 33.6895 -117.8600 209° Southwest 102 117 300 -480 Descending FlightAware ADS-B (OPMT / MUX)
03:56PM 33.6850 -117.8630 208° Southwest 102 117 200 -120 Descending FlightAware ADS-B (OPMT / MUX)
03:57PM 33.6664 -117.8744 208° Southwest 106 122 200  Level Los Angeles Center
03:59PM 33.6667 -117.8667 132° Southeast  Level FlightAware Approximate